Time;durP1;ratioP1;P1;durP2;ratioP2;P2;SDS_P1;SDS_P2;PMS_P1;PMS_P2;Temp;Humidity;BMP_temperature;BMP_pressure;BME280_temperature;BME280_humidity;BME280_pressure;Samples;Min_cycle;Max_cycle;Signal;HPM_P1;HPM_P2
2022/09/15 00:00:41;;;;;;;2.88;1.90;;;;;;;17.25;61.06;98890.94;4999964;28;20032;-92
2022/09/15 00:03:06;;;;;;;2.92;1.88;;;;;;;17.21;62.32;98898.16;4999422;28;20026;-91
2022/09/15 00:05:32;;;;;;;2.20;1.75;;;;;;;17.15;62.68;98890.16;5015907;28;20030;-92
2022/09/15 00:07:57;;;;;;;2.63;1.88;;;;;;;17.02;63.50;98893.88;4999144;28;20032;-91
2022/09/15 00:10:22;;;;;;;4.55;2.30;;;;;;;17.06;62.61;98899.47;5000000;28;20075;-92
2022/09/15 00:12:48;;;;;;;3.00;2.00;;;;;;;16.95;63.35;98902.53;4999906;28;20029;-91
2022/09/15 00:15:13;;;;;;;2.95;1.95;;;;;;;16.81;63.48;98882.88;4999227;28;20554;-92
2022/09/15 00:17:40;;;;;;;3.05;2.00;;;;;;;16.78;63.70;98891.63;5016447;28;20079;-91
2022/09/15 00:20:06;;;;;;;2.90;2.00;;;;;;;16.74;63.37;98894.19;5000194;28;20116;-91
2022/09/15 00:22:32;;;;;;;3.22;2.20;;;;;;;16.67;63.67;98896.59;4981118;28;20053;-91
2022/09/15 00:24:57;;;;;;;4.68;2.10;;;;;;;16.68;63.58;98892.75;4976048;28;20061;-91
2022/09/15 00:27:23;;;;;;;3.78;2.00;;;;;;;16.68;63.45;98889.22;4977528;28;20033;-91
2022/09/15 00:29:48;;;;;;;2.70;1.75;;;;;;;16.79;63.38;98895.97;4976914;28;20026;-92
2022/09/15 00:32:14;;;;;;;4.15;2.20;;;;;;;16.84;63.82;98911.34;4993629;28;20392;-92
2022/09/15 00:34:40;;;;;;;3.10;1.92;;;;;;;16.69;63.58;98899.00;4993307;28;20022;-92
2022/09/15 00:37:05;;;;;;;3.45;2.03;;;;;;;16.65;63.72;98895.31;4993421;28;20026;-91
2022/09/15 00:39:30;;;;;;;3.00;2.03;;;;;;;16.65;63.92;98887.16;4960282;28;20065;-92
2022/09/15 00:41:56;;;;;;;4.72;2.00;;;;;;;16.61;64.13;98897.09;4982345;28;20030;-92
2022/09/15 00:44:21;;;;;;;2.78;1.70;;;;;;;16.66;64.36;98905.84;4999576;28;20026;-92
2022/09/15 00:46:48;;;;;;;4.00;2.20;;;;;;;16.70;64.38;98914.97;5022832;28;20053;-92
2022/09/15 00:49:17;;;;;;;3.90;2.33;;;;;;;16.54;65.04;98901.06;4996718;28;20102;-91
2022/09/15 00:52:05;;;;;;;3.70;2.40;;;;;;;16.47;64.53;98895.31;5005521;28;20030;-92
2022/09/15 00:54:56;;;;;;;4.53;2.58;;;;;;;16.57;64.55;98915.94;5001182;28;20515;-92
2022/09/15 00:57:49;;;;;;;6.45;3.88;;;;;;;16.41;64.80;98901.22;5014584;28;20033;-92
2022/09/15 01:00:17;;;;;;;4.57;2.80;;;;;;;16.53;64.30;98904.09;4999484;28;20030;-92
2022/09/15 01:02:42;;;;;;;6.53;4.20;;;;;;;16.41;63.99;98891.16;4999794;28;20030;-93
2022/09/15 01:05:10;;;;;;;6.40;4.68;;;;;;;16.35;64.21;98878.84;5015917;28;20108;-92
2022/09/15 01:07:49;;;;;;;9.48;4.07;;;;;;;16.42;65.11;98897.41;5002833;28;20029;-91
2022/09/15 01:10:26;;;;;;;6.68;4.25;;;;;;;16.39;64.86;98892.59;5020352;28;20032;-92
2022/09/15 01:12:53;;;;;;;6.30;3.78;;;;;;;16.31;65.13;98889.56;5003429;28;20025;-92
2022/09/15 01:15:20;;;;;;;5.53;4.20;;;;;;;16.39;65.19;98898.81;5019844;28;20432;-92
2022/09/15 01:17:52;;;;;;;7.55;4.15;;;;;;;16.43;65.31;98907.13;5018272;28;20063;-92
2022/09/15 01:20:56;;;;;;;9.75;4.28;;;;;;;16.38;65.05;98888.28;5019499;28;20547;-92
2022/09/15 01:24:04;;;;;;;9.13;4.35;;;;;;;16.46;64.90;98911.94;4965284;28;20485;-92
2022/09/15 01:27:01;;;;;;;5.97;3.75;;;;;;;16.43;65.75;98905.22;5010182;28;20041;-92
2022/09/15 01:29:53;;;;;;;11.90;4.03;;;;;;;16.39;65.26;98906.19;5034689;28;20033;-91
2022/09/15 01:35:19;;;;;;;6.82;3.25;;;;;;;16.33;66.05;98903.63;5022276;28;20040;-91
2022/09/15 01:37:51;;;;;;;7.10;3.30;;;;;;;16.34;66.18;98909.84;5018195;28;20056;-90
2022/09/15 01:40:16;;;;;;;5.55;3.22;;;;;;;16.17;66.52;98903.28;5018924;28;20057;-91
2022/09/15 01:42:42;;;;;;;5.68;2.95;;;;;;;16.20;67.05;98915.41;4981653;28;20065;-91
2022/09/15 01:45:13;;;;;;;6.38;3.05;;;;;;;16.20;66.83;98918.13;4963350;28;20029;-92
2022/09/15 01:47:38;;;;;;;3.75;3.05;;;;;;;16.17;67.26;98927.72;4980000;28;20481;-91
2022/09/15 01:50:12;;;;;;;4.57;3.00;;;;;;;16.22;66.79;98910.47;4963180;28;20057;-91
2022/09/15 01:52:40;;;;;;;6.10;2.85;;;;;;;16.21;67.40;98919.75;4996371;28;20026;-91
2022/09/15 01:55:10;;;;;;;5.22;2.60;;;;;;;16.11;67.93;98917.31;5017931;28;20022;-92
2022/09/15 01:57:36;;;;;;;4.40;2.60;;;;;;;16.06;67.90;98929.16;5001469;28;20033;-91
2022/09/15 02:00:02;;;;;;;5.43;3.05;;;;;;;15.97;67.79;98922.88;5001363;28;20028;-91
2022/09/15 02:02:28;;;;;;;14.85;3.33;;;;;;;16.07;67.47;98929.94;5017223;28;20029;-91
2022/09/15 02:04:59;;;;;;;6.20;3.13;;;;;;;15.95;67.46;98915.03;5017633;28;20416;-91
2022/09/15 02:07:37;;;;;;;5.20;3.10;;;;;;;16.04;67.90;98930.56;5000649;28;20024;-92
2022/09/15 02:10:16;;;;;;;10.00;3.80;;;;;;;16.04;68.26;98933.28;5035257;28;20276;-91
2022/09/15 02:12:46;;;;;;;6.13;3.33;;;;;;;16.01;68.34;98936.63;5001892;28;20029;-91
2022/09/15 02:15:13;;;;;;;8.38;4.13;;;;;;;16.00;68.50;98935.84;5035103;28;20033;-91
2022/09/15 02:17:49;;;;;;;10.15;4.68;;;;;;;15.86;68.83;98916.16;5001297;28;20052;-91
2022/09/15 02:20:42;;;;;;;8.55;4.70;;;;;;;15.82;68.53;98910.53;5002851;28;20116;-91
2022/09/15 02:23:15;;;;;;;8.45;4.80;;;;;;;15.74;68.66;98928.38;4994687;28;20038;-90
2022/09/15 02:25:46;;;;;;;10.15;4.85;;;;;;;15.71;69.03;98933.63;4996171;28;20022;-91
2022/09/15 02:28:12;;;;;;;;;;;;;;;15.75;69.52;98940.84;5017649;28;20476;-91
2022/09/15 02:30:41;;;;;;;7.25;4.28;;;;;;;15.65;69.52;98932.16;5016370;28;19916;-90
2022/09/15 02:33:09;;;;;;;7.35;4.03;;;;;;;15.67;69.50;98938.88;4981700;28;20041;-90
2022/09/15 02:35:35;;;;;;;12.13;6.28;;;;;;;15.51;69.53;98918.69;4981019;28;20116;-91
2022/09/15 02:38:01;;;;;;;11.15;5.20;;;;;;;15.61;69.97;98936.63;4997027;28;20026;-91
2022/09/15 02:40:27;;;;;;;11.55;5.72;;;;;;;15.50;69.73;98923.31;4997095;28;20049;-91
2022/09/15 02:42:54;;;;;;;11.55;6.15;;;;;;;15.43;69.86;98922.16;4981469;28;20030;-92
2022/09/15 02:45:20;;;;;;;15.73;6.47;;;;;;;15.38;69.75;98916.84;4981641;28;20077;-91
2022/09/15 02:47:45;;;;;;;11.45;7.00;;;;;;;15.42;69.64;98912.41;4980505;28;20030;-91
2022/09/15 02:50:11;;;;;;;14.18;8.93;;;;;;;15.45;69.94;98928.88;4981488;28;20022;-91
2022/09/15 02:52:37;;;;;;;20.17;9.48;;;;;;;15.33;70.06;98912.38;4997958;28;20030;-92
2022/09/15 02:55:03;;;;;;;17.65;9.32;;;;;;;15.36;70.03;98923.41;4981575;28;20025;-92
2022/09/15 02:57:28;;;;;;;14.63;8.48;;;;;;;15.40;69.50;98918.16;4997035;28;20053;-91
2022/09/15 03:00:13;;;;;;;19.52;8.20;;;;;;;15.56;69.26;98932.94;5000806;28;20036;-91
2022/09/15 03:02:44;;;;;;;14.93;7.00;;;;;;;15.55;69.16;98923.16;5032776;28;20026;-91
2022/09/15 03:05:12;;;;;;;10.90;6.13;;;;;;;15.47;69.15;98906.84;5002260;28;20073;-91
2022/09/15 03:07:44;;;;;;;9.90;5.25;;;;;;;15.80;68.79;98931.75;5017398;28;20030;-91
2022/09/15 03:10:10;;;;;;;10.25;6.15;;;;;;;15.59;68.53;98893.50;5032920;28;20108;-91
2022/09/15 03:12:40;;;;;;;13.00;6.97;;;;;;;15.61;68.96;98912.97;5000443;28;20036;-91
2022/09/15 03:15:07;;;;;;;16.60;7.88;;;;;;;15.61;69.30;98912.97;4999903;28;20033;-91
2022/09/15 03:17:34;;;;;;;14.52;7.82;;;;;;;15.61;69.05;98910.28;5000548;28;20119;-91
2022/09/15 03:19:59;;;;;;;10.43;7.00;;;;;;;15.69;68.44;98912.22;5000936;28;20068;-92
2022/09/15 03:22:25;;;;;;;13.10;7.38;;;;;;;15.80;67.89;98904.63;5001764;28;20060;-91
2022/09/15 03:24:51;;;;;;;11.68;7.15;;;;;;;15.80;68.53;98907.34;5017829;28;20511;-92
2022/09/15 03:27:16;;;;;;;16.33;7.75;;;;;;;15.84;67.96;98908.31;5004957;28;20037;-93
2022/09/15 03:29:42;;;;;;;11.73;7.30;;;;;;;15.84;67.96;98897.44;5006001;28;20052;-95
2022/09/15 03:32:07;;;;;;;15.13;7.40;;;;;;;15.86;68.04;98903.38;5017505;28;20041;-91
2022/09/15 03:34:33;;;;;;;13.63;6.65;;;;;;;15.99;68.11;98919.84;4999480;28;20022;-90
2022/09/15 03:36:58;;;;;;;13.98;6.95;;;;;;;15.86;68.15;98897.13;4999046;28;20041;-91
2022/09/15 03:39:24;;;;;;;14.73;7.20;;;;;;;15.88;68.04;98905.78;4999061;28;20053;-90
2022/09/15 03:41:49;;;;;;;17.02;6.85;;;;;;;15.94;68.58;98926.22;5015338;28;20042;-91
2022/09/15 03:44:15;;;;;;;11.05;6.93;;;;;;;15.79;68.57;98903.00;5014961;28;20507;-90
2022/09/15 03:46:40;;;;;;;11.38;6.45;;;;;;;15.75;68.56;98912.91;5014376;28;20057;-90
2022/09/15 03:49:06;;;;;;;15.65;7.32;;;;;;;15.73;68.86;98912.44;4999553;28;20090;-91
2022/09/15 03:51:31;;;;;;;12.75;7.10;;;;;;;15.76;68.63;98933.50;5015575;28;20033;-91
2022/09/15 03:53:57;;;;;;;11.07;7.13;;;;;;;15.60;69.09;98916.00;5015747;28;20026;-91
2022/09/15 03:56:32;;;;;;;11.35;6.28;;;;;;;15.61;69.47;98920.34;5016620;28;20092;-91
2022/09/15 03:58:59;;;;;;;10.05;6.10;;;;;;;15.43;69.57;98903.16;5016493;28;20053;-92
2022/09/15 04:01:25;;;;;;;17.92;7.25;;;;;;;15.43;69.77;98908.59;5017034;28;20098;-92
2022/09/15 04:03:50;;;;;;;10.48;6.38;;;;;;;15.37;69.72;98910.63;5016793;28;20014;-94
2022/09/15 04:06:16;;;;;;;22.83;10.18;;;;;;;15.46;69.74;98924.22;5000633;28;20037;-93
2022/09/15 04:08:42;;;;;;;14.20;6.68;;;;;;;15.39;70.28;98915.75;5001422;28;20025;-93
2022/09/15 04:11:09;;;;;;;9.02;5.43;;;;;;;15.50;70.44;98936.06;4996216;28;20491;-95
2022/09/15 04:13:36;;;;;;;12.77;6.43;;;;;;;15.34;70.57;98917.47;5013600;28;20531;-93
2022/09/15 04:16:03;;;;;;;13.80;6.18;;;;;;;15.50;69.77;98914.34;4996751;28;20091;-94
2022/09/15 04:18:29;;;;;;;12.95;6.00;;;;;;;15.50;69.73;98909.75;4981373;28;20415;-92
2022/09/15 04:20:58;;;;;;;13.15;6.05;;;;;;;15.63;69.99;98934.38;4981662;28;20120;-95
2022/09/15 04:23:24;;;;;;;11.82;5.38;;;;;;;15.65;69.80;98935.66;4981790;28;20061;-93
2022/09/15 04:25:56;;;;;;;17.77;6.47;;;;;;;15.44;69.69;98912.88;4981714;28;20026;-94
2022/09/15 04:28:23;;;;;;;12.68;6.07;;;;;;;15.56;69.74;98941.06;4982180;28;20033;-94
2022/09/15 04:30:49;;;;;;;17.00;8.70;;;;;;;15.36;70.56;98933.47;4981131;28;20025;-92
2022/09/15 04:33:14;;;;;;;8.43;5.70;;;;;;;15.29;69.94;98908.66;4998395;28;20094;-93
2022/09/15 04:35:40;;;;;;;11.20;6.60;;;;;;;15.46;69.73;98937.78;4998056;28;20029;-91
2022/09/15 04:38:05;;;;;;;17.02;6.45;;;;;;;15.33;70.03;98906.94;4997140;28;20029;-93
2022/09/15 04:40:31;;;;;;;16.02;8.05;;;;;;;15.52;70.44;98941.97;4997777;28;20050;-92
2022/09/15 04:42:57;;;;;;;11.07;5.82;;;;;;;15.45;70.55;98926.16;4999956;28;20068;-92
2022/09/15 04:45:34;;;;;;;11.50;6.30;;;;;;;15.57;70.17;98950.78;5013803;28;20026;-95
2022/09/15 04:48:52;;;;;;;17.67;7.43;;;;;;;15.63;70.41;98958.81;4962159;28;20145;-96
2022/09/15 04:58:03;;;;;;;13.63;7.70;;;;;;;15.87;68.93;98944.88;5549190;22;20064;-94
2022/09/15 05:00:33;;;;;;;18.25;9.65;;;;;;;15.94;69.17;98948.75;5005377;28;20494;-92
2022/09/15 05:02:59;;;;;;;16.63;7.32;;;;;;;15.93;69.00;98930.84;5023488;28;20086;-91
2022/09/15 05:05:25;;;;;;;12.40;8.20;;;;;;;16.14;68.77;98936.50;4982583;28;20116;-86
2022/09/15 05:07:51;;;;;;;18.83;9.15;;;;;;;16.27;68.45;98953.78;5002007;28;20037;-94
2022/09/15 05:10:21;;;;;;;14.73;8.75;;;;;;;16.25;67.99;98928.03;4966876;28;20026;-95
2022/09/15 05:12:46;;;;;;;17.05;9.55;;;;;;;16.14;67.89;98901.22;4987742;28;20476;-95
2022/09/15 05:15:35;;;;;;;14.27;9.20;;;;;;;16.34;67.42;98929.66;4994191;28;20099;-96
2022/09/15 05:18:03;;;;;;;15.57;9.27;;;;;;;16.26;67.69;98907.91;4950752;28;20043;-89
2022/09/15 05:20:32;;;;;;;15.55;8.68;;;;;;;16.68;66.96;98944.41;4951135;28;20410;-92
2022/09/15 05:22:57;;;;;;;20.08;11.00;;;;;;;16.70;67.16;98946.81;4949615;28;20129;-93
2022/09/15 05:28:55;;;;;;;17.23;8.52;;;;;;;16.84;66.35;98920.28;4990091;28;20038;-93
2022/09/15 05:31:22;;;;;;;15.50;7.95;;;;;;;16.97;66.56;98915.78;4934323;28;20035;-94
2022/09/15 05:34:06;;;;;;;15.70;7.15;;;;;;;17.17;65.62;98911.59;4931042;28;20581;-94
2022/09/15 05:36:31;;;;;;;16.50;9.52;;;;;;;17.35;64.49;98906.91;4930733;28;20038;-93
2022/09/15 05:39:29;;;;;;;19.25;7.32;;;;;;;17.46;63.29;98904.63;4932908;28;20152;-92
2022/09/15 05:41:55;;;;;;;10.77;5.32;;;;;;;17.81;61.12;98923.56;4980621;28;20023;-93
2022/09/15 05:44:23;;;;;;;22.50;7.85;;;;;;;18.03;60.79;98936.91;4946801;28;20511;-91
2022/09/15 05:46:49;;;;;;;11.45;5.40;;;;;;;18.12;61.21;98943.13;4948393;28;20110;-92
2022/09/15 05:49:17;;;;;;;11.30;5.40;;;;;;;18.25;60.90;98924.94;4974658;28;20111;-92
2022/09/15 05:51:42;;;;;;;14.65;6.60;;;;;;;18.30;60.86;98929.38;5004030;28;20526;-93
2022/09/15 05:56:57;;;;;;;12.48;5.68;;;;;;;18.42;62.09;98913.13;5008038;28;20460;-94
2022/09/15 05:59:42;;;;;;;;;;;;;;;;;;;;;
2022/09/15 06:02:16;;;;;;;18.17;7.85;;;;;;;18.56;61.66;98897.28;4991867;28;20476;-94
2022/09/15 06:04:45;;;;;;;25.25;7.45;;;;;;;18.62;61.87;98897.91;4981338;28;20121;-92
2022/09/15 06:07:10;;;;;;;18.20;9.60;;;;;;;18.75;61.55;98899.53;5015976;28;20395;-92
2022/09/15 06:09:36;;;;;;;16.55;9.40;;;;;;;18.81;61.51;98885.75;5002221;28;20025;-94
2022/09/15 06:12:02;;;;;;;15.13;8.93;;;;;;;18.92;61.54;98882.25;5001617;28;20041;-93
2022/09/15 06:14:28;;;;;;;16.88;9.50;;;;;;;19.12;60.92;98894.25;5001780;28;20053;-92
2022/09/15 06:16:53;;;;;;;16.63;7.93;;;;;;;19.26;60.14;98893.13;5018450;28;20037;-92
2022/09/15 06:19:19;;;;;;;11.95;7.35;;;;;;;19.37;59.70;98881.44;5006707;28;20050;-89
2022/09/15 06:21:44;;;;;;;19.45;8.60;;;;;;;19.59;58.54;98893.88;5013513;28;20057;-90
2022/09/15 06:24:11;;;;;;;13.80;7.13;;;;;;;19.71;58.03;98895.84;5030715;28;20025;-95
2022/09/15 06:26:39;;;;;;;14.25;6.35;;;;;;;19.83;57.33;98895.03;5007805;28;20029;-94
2022/09/15 06:29:05;;;;;;;18.30;6.75;;;;;;;20.03;57.08;98901.53;5000356;28;20030;-93
2022/09/15 06:34:53;;;;;;;8.68;4.80;;;;;;;20.16;54.48;98883.97;4939463;28;20041;-94
2022/09/15 06:37:41;;;;;;;10.52;5.13;;;;;;;20.27;54.23;98867.09;4987944;28;20029;-95
2022/09/15 06:40:07;;;;;;;8.27;4.95;;;;;;;20.43;53.26;98869.91;4993134;28;20039;-91
2022/09/15 06:43:10;;;;;;;11.02;7.72;;;;;;;20.75;53.19;98898.19;4979350;28;20053;-94
2022/09/15 06:45:54;;;;;;;6.68;4.47;;;;;;;20.75;51.57;98882.59;4997708;28;20089;-94
2022/09/15 06:48:19;;;;;;;4.80;2.80;;;;;;;20.79;50.82;98869.81;4943615;28;20049;-94
2022/09/15 06:50:52;;;;;;;11.75;3.95;;;;;;;21.13;51.01;98907.84;4960771;28;20039;-95
2022/09/15 06:53:18;;;;;;;4.88;2.70;;;;;;;21.09;50.06;98876.84;4945599;28;20073;-94
2022/09/15 06:55:50;;;;;;;4.97;2.65;;;;;;;21.20;48.87;98883.38;4976717;28;20038;-94
2022/09/15 06:58:16;;;;;;;3.00;1.80;;;;;;;21.41;47.35;98885.88;4976509;28;20038;-95
2022/09/15 07:00:50;;;;;;;4.50;2.25;;;;;;;21.53;47.88;98874.84;4975955;28;20134;-95
2022/09/15 07:03:19;;;;;;;6.20;2.50;;;;;;;21.61;48.37;98864.09;4989357;28;20043;-96
2022/09/15 07:05:45;;;;;;;4.35;2.28;;;;;;;21.78;47.58;98869.19;4989153;28;20030;-92
2022/09/15 07:08:13;;;;;;;4.72;2.63;;;;;;;21.88;47.71;98868.63;4998970;28;20042;-95
2022/09/15 07:10:42;;;;;;;7.95;2.70;;;;;;;22.04;47.09;98874.09;4998445;28;20084;-93
2022/09/15 07:13:08;;;;;;;6.10;2.45;;;;;;;22.32;46.42;98886.88;5001641;28;20044;-93
2022/09/15 07:15:34;;;;;;;6.90;4.15;;;;;;;22.39;45.88;98876.03;4978464;28;20117;-91
2022/09/15 07:18:08;;;;;;;7.13;3.25;;;;;;;22.62;45.53;98876.16;4957832;28;20026;-91
2022/09/15 07:20:34;;;;;;;5.07;3.38;;;;;;;22.89;45.28;98879.81;5005184;28;20480;-93
2022/09/15 07:23:03;;;;;;;3.70;1.85;;;;;;;22.99;44.31;98870.97;4984963;28;20122;-93
2022/09/15 07:25:31;;;;;;;3.15;1.40;;;;;;;23.06;43.83;98853.09;4981743;28;20029;-95
2022/09/15 07:27:59;;;;;;;5.00;3.53;;;;;;;23.30;43.72;98863.69;5015137;28;20057;-95
2022/09/15 07:30:31;;;;;;;6.95;3.55;;;;;;;23.46;43.29;98863.56;4983148;28;20037;-95
2022/09/15 07:33:00;;;;;;;7.32;3.22;;;;;;;23.54;44.05;98851.53;5000148;28;20026;-94
2022/09/15 07:35:53;;;;;;;3.55;2.05;;;;;;;23.72;43.62;98862.00;4999480;28;20065;-94
2022/09/15 07:38:18;;;;;;;4.53;1.95;;;;;;;23.85;43.47;98866.19;4981909;28;20041;-94
2022/09/15 07:40:44;;;;;;;3.75;1.92;;;;;;;24.04;43.32;98867.25;4981177;28;20377;-93
2022/09/15 07:43:44;;;;;;;6.53;2.90;;;;;;;24.15;42.89;98863.47;4983996;28;20034;-96
2022/09/15 07:46:22;;;;;;;4.22;2.17;;;;;;;24.27;43.25;98859.69;5001653;28;20076;-95
2022/09/15 07:49:21;;;;;;;7.07;5.00;;;;;;;24.53;43.43;98882.84;4986749;28;20041;-95
2022/09/15 07:51:52;;;;;;;7.53;3.28;;;;;;;24.62;42.18;98858.59;4990184;28;20029;-96
2022/09/15 07:54:23;;;;;;;6.13;2.70;;;;;;;24.70;42.76;98840.19;4990236;28;20121;-95
2022/09/15 07:56:51;;;;;;;5.47;1.65;;;;;;;24.88;42.17;98849.44;5011561;28;20077;-96
2022/09/15 07:59:34;;;;;;;4.57;2.17;;;;;;;25.06;40.90;98844.09;5012867;28;20038;-94
2022/09/15 08:02:40;;;;;;;5.68;2.30;;;;;;;25.22;41.54;98848.63;4983688;28;20035;-96
2022/09/15 08:05:08;;;;;;;3.67;2.20;;;;;;;25.38;41.21;98846.38;5015848;28;20026;-94
2022/09/15 08:07:58;;;;;;;;;;;;;;;;;;;;;
2022/09/15 08:10:42;;;;;;;5.15;2.72;;;;;;;25.61;42.20;98835.94;5000214;28;20068;-95
2022/09/15 08:13:19;;;;;;;5.72;2.28;;;;;;;25.74;41.85;98844.69;4983528;28;20022;-95
2022/09/15 08:38:16;;;;;;;9.18;2.60;;;;;;;27.12;38.05;98842.19;5003096;28;20124;-94
2022/09/15 08:40:43;;;;;;;5.13;2.22;;;;;;;27.33;37.28;98848.91;4959924;28;20039;-95
2022/09/15 09:06:17;;;;;;;;;;;;;;;28.74;31.86;98848.25;4974863;29;20098;-96
2022/09/15 09:10:02;;;;;;;;;;;;;;;;;;;;;
2022/09/15 09:13:02;;;;;;;5.28;1.63;;;;;;;28.87;29.86;98804.25;4949924;29;20107;-96
2022/09/15 09:15:52;;;;;;;4.85;1.40;;;;;;;29.24;28.61;98833.31;4938182;29;20023;-96
2022/09/15 09:18:57;;;;;;;5.22;1.60;;;;;;;29.41;28.40;98831.59;4948830;28;20063;-96
2022/09/15 09:38:42;;;;;;;2.92;1.60;;;;;;;30.13;26.78;98811.47;5012609;28;20051;-95
2022/09/15 09:41:40;;;;;;;5.35;2.30;;;;;;;30.16;26.18;98785.66;4995163;28;20114;-96
2022/09/15 09:44:19;;;;;;;4.45;1.80;;;;;;;30.32;26.15;98785.88;4960759;28;20043;-95
2022/09/15 09:47:12;;;;;;;4.97;1.83;;;;;;;30.36;26.61;98783.03;4980182;28;20031;-96
2022/09/15 09:53:41;;;;;;;5.00;1.60;;;;;;;30.45;26.02;98766.66;5143503;23;20116;-96
2022/09/15 09:56:26;;;;;;;5.72;1.00;;;;;;;30.58;24.55;98762.09;5232946;23;20082;-94
2022/09/15 09:59:11;;;;;;;;;;;;;;;;;;;;;
2022/09/15 10:08:31;;;;;;;5.65;1.33;;;;;;;31.15;23.52;98762.44;4910160;28;20116;-94
2022/09/15 10:11:05;;;;;;;5.10;1.10;;;;;;;31.27;23.45;98763.84;4950896;28;20083;-94
2022/09/15 10:13:37;;;;;;;4.13;0.93;;;;;;;31.29;23.37;98755.84;4925111;29;20031;-94
2022/09/15 10:16:04;;;;;;;4.50;1.20;;;;;;;31.32;24.21;98755.03;4930800;28;20022;-94
2022/09/15 10:18:34;;;;;;;6.70;1.02;;;;;;;31.33;23.97;98756.59;4943516;28;20023;-93
2022/09/15 10:21:01;;;;;;;11.27;3.00;;;;;;;31.51;23.64;98768.22;4959987;28;20049;-96
2022/09/15 10:23:35;;;;;;;4.05;1.20;;;;;;;31.47;22.97;98755.59;4926508;29;20019;-95
2022/09/15 10:26:40;;;;;;;4.28;1.33;;;;;;;31.53;23.33;98748.31;4942370;29;20031;-95
2022/09/15 10:29:21;;;;;;;7.53;1.40;;;;;;;31.59;23.12;98763.31;4888994;29;20056;-95
2022/09/15 10:35:23;;;;;;;7.50;2.05;;;;;;;31.74;23.22;98763.81;4903211;29;19963;-96
2022/09/15 10:37:54;;;;;;;6.10;1.10;;;;;;;31.78;22.80;98765.31;4893303;29;20039;-93
2022/09/15 10:40:38;;;;;;;8.82;2.95;;;;;;;31.80;24.00;98759.34;4941728;29;20039;-95
2022/09/15 10:43:55;;;;;;;;;;;;;;;;;;;;;
2022/09/15 10:46:26;;;;;;;5.43;1.27;;;;;;;31.85;22.83;98756.03;4962786;29;20110;-96
2022/09/15 10:59:17;;;;;;;7.32;1.30;;;;;;;32.35;22.46;98752.25;4940783;29;20061;-95
2022/09/15 11:02:40;;;;;;;7.85;4.57;;;;;;;32.36;22.90;98751.03;4924132;29;20042;-96
2022/09/15 11:05:17;;;;;;;5.32;1.25;;;;;;;32.34;22.09;98739.53;4935291;29;20406;-93
2022/09/15 11:08:16;;;;;;;5.30;1.20;;;;;;;32.40;21.84;98729.44;4921368;29;20565;-93
2022/09/15 11:10:57;;;;;;;5.85;1.27;;;;;;;32.34;22.31;98717.25;4921026;29;20031;-94
2022/09/15 11:13:40;;;;;;;3.95;1.35;;;;;;;32.41;21.93;98714.28;4935931;29;20047;-95
2022/09/15 11:16:54;;;;;;;;;;;;;;;;;;;;;
2022/09/15 11:20:11;;;;;;;12.05;4.72;;;;;;;32.56;22.15;98727.91;4951415;28;20043;-95
2022/09/15 11:23:02;;;;;;;7.43;1.83;;;;;;;32.50;21.87;98721.25;4975406;28;20473;-95
2022/09/15 11:25:31;;;;;;;7.35;1.48;;;;;;;32.47;23.02;98711.00;4976536;28;20058;-93
2022/09/15 11:28:01;;;;;;;10.45;1.40;;;;;;;32.45;22.76;98700.28;4962778;28;20033;-95
2022/09/15 11:30:44;;;;;;;6.83;1.80;;;;;;;32.47;23.26;98703.41;4979104;28;20043;-95
2022/09/15 11:33:20;;;;;;;6.95;1.38;;;;;;;32.58;21.86;98717.13;4980879;28;20018;-95
2022/09/15 11:35:59;;;;;;;;;;;;;;;;;;;;;
2022/09/15 11:39:14;;;;;;;5.57;1.90;;;;;;;32.77;22.07;98712.72;4982748;28;20104;-94
2022/09/15 11:41:57;;;;;;;4.15;1.80;;;;;;;32.70;22.72;98688.56;4973339;28;20035;-92
2022/09/15 11:44:30;;;;;;;8.02;2.40;;;;;;;32.77;21.76;98687.63;4959546;28;20030;-92
2022/09/15 11:47:17;;;;;;;11.40;2.40;;;;;;;32.98;22.57;98697.44;4964345;28;20027;-91
2022/09/15 11:50:06;;;;;;;4.22;1.92;;;;;;;32.97;22.25;98687.50;4985799;28;20026;-93
2022/09/15 11:52:46;;;;;;;7.60;1.92;;;;;;;33.11;22.26;98689.19;4975283;28;20021;-91
2022/09/15 11:55:46;;;;;;;8.55;1.40;;;;;;;33.25;21.23;98691.59;4957634;28;20031;-92
2022/09/15 11:58:34;;;;;;;5.53;1.30;;;;;;;33.31;20.77;98686.25;4954100;28;20057;-91
2022/09/15 12:01:10;;;;;;;6.07;1.77;;;;;;;33.27;22.07;98682.75;4963029;28;20029;-93
2022/09/15 12:03:56;;;;;;;9.43;1.40;;;;;;;33.45;21.35;98697.03;4996099;28;20380;-93
2022/09/15 12:07:19;;;;;;;6.97;1.75;;;;;;;33.58;20.97;98695.06;4962375;28;20081;-93
2022/09/15 12:09:47;;;;;;;13.73;2.42;;;;;;;33.45;21.75;98676.72;4949935;28;20510;-94
2022/09/15 12:12:19;;;;;;;7.18;1.27;;;;;;;33.46;21.00;98675.50;4977274;28;20042;-94
2022/09/15 12:14:45;;;;;;;7.22;1.52;;;;;;;33.49;21.08;98669.00;4975086;28;20027;-92
2022/09/15 12:17:38;;;;;;;6.82;1.70;;;;;;;33.51;20.84;98686.09;4978624;28;20084;-96
2022/09/15 12:20:22;;;;;;;3.78;1.05;;;;;;;33.45;20.22;98666.31;4986581;28;20493;-94
2022/09/15 12:22:53;;;;;;;8.43;2.30;;;;;;;33.39;20.44;98670.88;4991159;28;20420;-93
2022/09/15 12:25:23;;;;;;;5.03;1.80;;;;;;;33.47;20.22;98677.81;4972493;28;20033;-94
2022/09/15 12:28:22;;;;;;;9.05;1.42;;;;;;;33.50;20.61;98692.94;4958439;28;20045;-93
2022/09/15 12:30:49;;;;;;;5.05;1.40;;;;;;;33.37;20.68;98674.13;4979637;28;20030;-93
2022/09/15 12:33:53;;;;;;;7.40;1.52;;;;;;;33.38;20.62;98686.06;4945676;28;20031;-93
2022/09/15 12:36:43;;;;;;;3.97;1.10;;;;;;;33.35;20.35;98687.72;4992985;28;20034;-94
2022/09/15 12:39:37;;;;;;;9.52;1.27;;;;;;;33.33;20.75;98687.38;4993098;28;20129;-92
2022/09/15 12:42:22;;;;;;;6.20;1.20;;;;;;;33.18;20.54;98689.78;4992596;28;20052;-94
2022/09/15 12:45:04;;;;;;;9.25;1.25;;;;;;;33.18;20.48;98691.78;4977440;28;20040;-92
2022/09/15 12:47:33;;;;;;;5.28;1.15;;;;;;;33.00;20.23;98658.75;4993726;28;20034;-94
2022/09/15 12:50:15;;;;;;;6.40;1.50;;;;;;;33.10;20.44;98671.66;4976623;28;20038;-94
2022/09/15 12:52:44;;;;;;;4.28;1.05;;;;;;;33.10;20.51;98666.09;4994047;28;20489;-95
2022/09/15 12:55:40;;;;;;;4.93;1.05;;;;;;;33.14;20.26;98660.38;4977985;28;20481;-96
2022/09/15 12:58:07;;;;;;;5.07;1.08;;;;;;;33.15;20.71;98656.41;4979443;28;20120;-95
2022/09/15 13:00:52;;;;;;;7.20;1.27;;;;;;;33.18;20.97;98663.88;4937099;28;20054;-96
2022/09/15 13:03:28;;;;;;;6.55;2.25;;;;;;;33.13;21.02;98662.41;4932978;29;20046;-96
2022/09/15 13:06:13;;;;;;;5.28;2.22;;;;;;;33.19;20.19;98668.25;4941710;28;20031;-94
2022/09/15 13:09:00;;;;;;;8.77;2.15;;;;;;;33.13;20.35;98661.63;4962246;28;20401;-93
2022/09/15 13:12:01;;;;;;;8.18;1.45;;;;;;;33.07;20.53;98652.97;4979716;28;20031;-94
2022/09/15 13:14:34;;;;;;;7.22;1.23;;;;;;;33.15;20.68;98665.53;4882103;29;20033;-95
2022/09/15 13:17:28;;;;;;;5.40;1.40;;;;;;;33.20;21.33;98667.00;4945577;28;20034;-94
2022/09/15 13:19:59;;;;;;;9.65;1.90;;;;;;;33.13;20.10;98662.41;4976981;28;20035;-94
2022/09/15 13:22:30;;;;;;;5.15;1.77;;;;;;;33.07;20.58;98643.81;4946041;28;20078;-94
2022/09/15 13:25:16;;;;;;;12.68;1.58;;;;;;;33.16;21.18;98655.16;4940224;29;20398;-95
2022/09/15 13:27:56;;;;;;;4.20;1.27;;;;;;;33.13;20.73;98654.03;4942334;29;20101;-96
2022/09/15 13:30:46;;;;;;;4.75;1.30;;;;;;;33.12;20.72;98651.69;4943205;29;20031;-94
2022/09/15 13:33:33;;;;;;;5.97;1.00;;;;;;;32.95;20.37;98629.34;4942986;29;20031;-95
2022/09/15 13:36:01;;;;;;;5.28;1.10;;;;;;;33.10;21.09;98654.94;4927315;29;20582;-94
2022/09/15 13:38:51;;;;;;;7.60;1.63;;;;;;;33.09;21.51;98647.75;4943822;29;20130;-95
2022/09/15 13:41:32;;;;;;;8.97;1.93;;;;;;;32.85;20.86;98627.63;4958468;29;20042;-94
2022/09/15 13:44:34;;;;;;;4.27;2.10;;;;;;;33.06;21.63;98648.63;4934587;28;20298;-96
2022/09/15 13:47:11;;;;;;;3.97;1.40;;;;;;;33.08;21.30;98651.78;4956219;29;20331;-95
2022/09/15 13:50:15;;;;;;;3.90;1.90;;;;;;;33.08;21.59;98640.63;4943380;29;20031;-96
2022/09/15 13:52:59;;;;;;;7.60;1.05;;;;;;;33.10;20.80;98638.19;4938482;29;20035;-94
2022/09/15 13:55:28;;;;;;;6.55;1.70;;;;;;;33.09;21.14;98631.03;4942374;29;20038;-95
2022/09/15 13:57:58;;;;;;;4.60;1.20;;;;;;;33.06;21.10;98637.47;4944751;28;20043;-96
2022/09/15 14:00:34;;;;;;;11.02;5.93;;;;;;;33.00;21.88;98617.69;4960259;28;20034;-95
2022/09/15 14:03:04;;;;;;;6.18;2.10;;;;;;;33.13;21.25;98639.31;4961071;28;20031;-96